Union Hill, Illinois
Current Conditions -  °F | °C
As of 12:55 AM on Thursday 23 Oct 2014 (Local Time) from KIKK Reporting Station
Clear Clear  
Wind Chill: 37°   Ceiling: Unl
Heat Index: 37°   Visibility: 7mi
Dew Point: 35°   Wind: 0mph
Humidity: 95%   Direction: NA
Pressure: 30.26"   Gusts: NA
Location:  41.11°N, 88.15°W
Report Text: KIKK 230555Z AUTO 00000KT 7SM CLR 03/02 A3026 RMK AO2 T00260019 10078 20026 401420001
Loading
Personal Weather Stations






























Interactive Weather Map
Tropical Storm Tracking
New forecast layout! Learn more

10-Day Weather Forecast

Advertisements
Track Severe Weather on mobile